Time;durP1;ratioP1;P1;durP2;ratioP2;P2;SDS_P1;SDS_P2;PMS_P1;PMS_P2;Temp;Humidity;BMP_temperature;BMP_pressure;BME280_temperature;BME280_humidity;BME280_pressure;Samples;Min_cycle;Max_cycle;Signal;HPM_P1;HPM_P2
2022/07/18 00:02:23;;;;;;;5.97;3.57;;;;;;;17.28;100.00;100266.26;1690399;83;21027;-58
2022/07/18 00:04:50;;;;;;;4.87;3.60;;;;;;;17.21;100.00;100262.41;1664043;86;21395;-55
2022/07/18 00:07:17;;;;;;;5.17;3.73;;;;;;;17.18;100.00;100268.12;1665461;84;21015;-56
2022/07/18 00:09:44;;;;;;;6.90;3.70;;;;;;;17.12;100.00;100267.72;1665031;84;21489;-55
2022/07/18 00:12:12;;;;;;;4.97;3.30;;;;;;;17.11;100.00;100262.66;1688454;84;21782;-55
2022/07/18 00:14:38;;;;;;;7.77;3.70;;;;;;;17.09;100.00;100263.42;1695635;83;21084;-56
2022/07/18 00:17:06;;;;;;;4.23;3.40;;;;;;;17.08;100.00;100263.91;1696404;83;21959;-55
2022/07/18 00:19:34;;;;;;;4.73;3.70;;;;;;;17.11;100.00;100267.93;1695874;83;20932;-62
2022/07/18 00:22:03;;;;;;;7.90;3.80;;;;;;;17.18;100.00;100271.27;1696591;83;21105;-56
2022/07/18 00:24:32;;;;;;;6.90;4.13;;;;;;;17.21;100.00;100274.26;1704196;83;20920;-56
2022/07/18 00:27:02;;;;;;;5.57;4.03;;;;;;;17.17;100.00;100273.63;1697607;83;21604;-55
2022/07/18 00:29:29;;;;;;;9.63;4.20;;;;;;;17.15;100.00;100276.47;1695927;84;21082;-57
2022/07/18 00:31:57;;;;;;;6.33;4.07;;;;;;;17.08;100.00;100271.80;1696115;83;21596;-55
2022/07/18 00:34:24;;;;;;;5.47;3.67;;;;;;;17.11;100.00;100278.46;1696098;83;21070;-59
2022/07/18 00:36:51;;;;;;;6.40;3.27;;;;;;;17.11;100.00;100275.83;1696131;83;21259;-55
2022/07/18 00:39:19;;;;;;;4.97;3.70;;;;;;;16.95;100.00;100268.86;1699493;83;21078;-55
2022/07/18 00:41:49;;;;;;;6.23;3.80;;;;;;;17.01;100.00;100273.76;1695992;83;21022;-54
2022/07/18 00:44:23;;;;;;;6.13;3.30;;;;;;;17.04;100.00;100275.92;1696387;83;21126;-56
2022/07/18 00:46:52;;;;;;;5.13;3.87;;;;;;;17.02;100.00;100272.20;1699502;83;21604;-54
2022/07/18 00:49:19;;;;;;;4.87;3.63;;;;;;;16.89;100.00;100274.22;1695578;83;22038;-59
2022/07/18 00:51:48;;;;;;;5.80;3.50;;;;;;;16.89;100.00;100271.58;1696349;83;21023;-56
2022/07/18 00:54:16;;;;;;;4.93;3.90;;;;;;;16.94;100.00;100275.68;1696136;83;21102;-54
2022/07/18 00:56:44;;;;;;;6.27;4.10;;;;;;;16.88;100.00;100282.62;1697461;83;21085;-59
2022/07/18 00:59:12;;;;;;;5.47;3.57;;;;;;;16.86;100.00;100286.50;1696246;83;21029;-60
2022/07/18 01:01:48;;;;;;;6.80;4.20;;;;;;;16.78;100.00;100285.81;1696050;84;21162;-54
2022/07/18 01:04:19;;;;;;;6.80;3.77;;;;;;;16.73;100.00;100285.66;1695983;83;21049;-54
2022/07/18 01:06:47;;;;;;;6.07;3.40;;;;;;;16.73;100.00;100289.61;1693969;83;21090;-61
2022/07/18 01:09:15;;;;;;;9.03;4.07;;;;;;;16.75;100.00;100282.30;1694382;83;22153;-62
2022/07/18 01:11:43;;;;;;;5.97;3.80;;;;;;;16.74;100.00;100291.23;1695548;83;21508;-55
2022/07/18 01:14:11;;;;;;;6.43;4.50;;;;;;;16.71;100.00;100287.70;1695368;83;21639;-54
2022/07/18 01:16:38;;;;;;;8.93;4.77;;;;;;;16.66;100.00;100288.86;1695080;83;21571;-56
2022/07/18 01:19:06;;;;;;;5.50;4.10;;;;;;;16.61;100.00;100285.30;1700194;83;21901;-56
2022/07/18 01:21:33;;;;;;;5.70;3.87;;;;;;;16.57;100.00;100286.25;1695568;83;21296;-56
2022/07/18 01:24:01;;;;;;;4.83;3.40;;;;;;;16.58;100.00;100283.10;1695492;84;21560;-54
2022/07/18 01:26:28;;;;;;;7.53;4.20;;;;;;;16.60;100.00;100281.86;1696759;83;21165;-56
2022/07/18 01:28:55;;;;;;;7.33;4.10;;;;;;;16.56;100.00;100283.85;1694528;83;21245;-62
2022/07/18 01:31:22;;;;;;;6.07;3.33;;;;;;;16.56;100.00;100291.23;1694784;83;21316;-55
2022/07/18 01:33:49;;;;;;;6.00;3.23;;;;;;;16.57;100.00;100284.94;1695575;83;20908;-55
2022/07/18 01:36:17;;;;;;;5.73;3.63;;;;;;;16.51;100.00;100279.23;1695453;83;21067;-55
2022/07/18 01:38:44;;;;;;;5.93;3.63;;;;;;;16.45;100.00;100277.50;1695809;83;21158;-59
2022/07/18 01:41:11;;;;;;;7.07;4.50;;;;;;;16.43;100.00;100278.22;1694917;83;21070;-55
2022/07/18 01:43:41;;;;;;;7.30;4.03;;;;;;;16.39;100.00;100277.05;1695601;83;21270;-54
2022/07/18 01:46:12;;;;;;;8.63;4.57;;;;;;;16.42;100.00;100280.56;1695744;83;21015;-55
2022/07/18 01:48:39;;;;;;;7.10;4.00;;;;;;;16.41;100.00;100281.59;1695777;83;21063;-55
2022/07/18 01:51:10;;;;;;;9.20;4.00;;;;;;;16.42;100.00;100280.56;1694774;83;21298;-56
2022/07/18 01:53:39;;;;;;;5.72;3.87;;;;;;;16.37;100.00;100280.44;1696182;83;21090;-55
2022/07/18 01:56:06;;;;;;;5.60;4.00;;;;;;;16.32;100.00;100278.95;1695935;83;21127;-54
2022/07/18 01:58:35;;;;;;;6.77;4.60;;;;;;;16.25;100.00;100279.02;1695848;83;21031;-55
2022/07/18 02:01:03;;;;;;;5.57;3.67;;;;;;;16.25;100.00;100285.11;1694775;83;21103;-56
2022/07/18 02:03:31;;;;;;;6.30;4.53;;;;;;;16.33;100.00;100280.06;1696083;83;21243;-55
2022/07/18 02:05:59;;;;;;;6.63;4.43;;;;;;;16.33;100.00;100284.02;1670467;84;21039;-54
2022/07/18 02:08:27;;;;;;;7.70;4.50;;;;;;;16.35;100.00;100279.84;1675808;84;21643;-55
2022/07/18 02:10:54;;;;;;;13.20;5.33;;;;;;;16.33;100.00;100274.80;1673509;84;21031;-62
2022/07/18 02:13:22;;;;;;;6.17;4.40;;;;;;;16.33;100.00;100277.44;1669121;85;21138;-55
2022/07/18 02:15:49;;;;;;;7.60;4.63;;;;;;;16.33;100.00;100281.38;1669795;84;21149;-54
2022/07/18 02:18:16;;;;;;;6.57;4.20;;;;;;;16.33;100.00;100283.19;1673819;84;21038;-55
2022/07/18 02:20:44;;;;;;;5.57;4.30;;;;;;;16.43;100.00;100279.53;1671030;84;21087;-57
2022/07/18 02:23:13;;;;;;;8.10;4.87;;;;;;;16.75;100.00;100280.19;1672379;84;21078;-56
2022/07/18 02:25:40;;;;;;;7.00;4.53;;;;;;;16.95;100.00;100288.61;1670383;85;21821;-55
2022/07/18 02:28:07;;;;;;;9.30;4.40;;;;;;;17.44;100.00;100293.77;1641277;86;21761;-56
2022/07/18 02:30:35;;;;;;;8.03;4.43;;;;;;;18.02;100.00;100294.84;1674251;85;21107;-55
2022/07/18 02:33:02;;;;;;;7.60;4.43;;;;;;;18.54;100.00;100289.06;1668768;84;21011;-61
2022/07/18 02:35:30;;;;;;;6.37;3.97;;;;;;;19.12;100.00;100286.70;1668956;84;21690;-55
2022/07/18 02:37:57;;;;;;;7.00;3.70;;;;;;;19.63;100.00;100284.92;1675358;85;21105;-56
2022/07/18 02:40:25;;;;;;;6.13;3.67;;;;;;;19.96;100.00;100280.59;1672515;84;21179;-55
2022/07/18 02:42:53;;;;;;;6.03;3.60;;;;;;;20.04;100.00;100280.70;1675472;85;20995;-62
2022/07/18 02:45:20;;;;;;;5.20;3.57;;;;;;;20.34;100.00;100277.64;1671353;85;21050;-55
2022/07/18 02:47:47;;;;;;;7.47;3.60;;;;;;;20.81;100.00;100275.81;1672391;85;21557;-54
2022/07/18 02:50:16;;;;;;;6.13;3.33;;;;;;;21.12;100.00;100269.73;1676223;84;20987;-56
2022/07/18 02:52:44;;;;;;;6.43;3.67;;;;;;;21.26;100.00;100271.97;1673042;84;21240;-56
2022/07/18 02:55:12;;;;;;;6.10;3.77;;;;;;;21.25;100.00;100266.38;1672502;84;21008;-60
2022/07/18 02:57:39;;;;;;;5.30;3.23;;;;;;;21.39;100.00;100274.21;1671854;84;21357;-56
2022/07/18 03:00:09;;;;;;;6.47;4.13;;;;;;;21.71;100.00;100274.18;1668982;85;21616;-55
2022/07/18 03:02:36;;;;;;;4.83;3.30;;;;;;;22.30;100.00;100281.12;1675097;85;21056;-54
2022/07/18 03:05:04;;;;;;;4.03;2.80;;;;;;;22.99;100.00;100283.97;1649391;85;21134;-61
2022/07/18 03:07:32;;;;;;;5.83;3.50;;;;;;;23.54;100.00;100271.19;1667065;86;21008;-54
2022/07/18 03:09:59;;;;;;;5.43;3.07;;;;;;;24.07;100.00;100278.02;1690909;83;21094;-55
2022/07/18 03:12:26;;;;;;;4.63;2.97;;;;;;;24.56;100.00;100272.75;1690626;83;21007;-55
2022/07/18 03:14:54;;;;;;;5.60;3.30;;;;;;;25.10;100.00;100272.41;1659183;86;21528;-60
2022/07/18 03:17:22;;;;;;;6.20;3.30;;;;;;;25.71;100.00;100279.85;1666234;85;22504;-58
2022/07/18 03:19:49;;;;;;;8.35;4.03;;;;;;;26.18;100.00;100278.30;1658920;85;21531;-57
2022/07/18 03:22:17;;;;;;;5.67;3.37;;;;;;;26.52;100.00;100283.49;1659364;85;20989;-56
2022/07/18 03:24:45;;;;;;;4.35;3.00;;;;;;;26.96;100.00;100282.84;1658815;85;21590;-56
2022/07/18 03:27:13;;;;;;;5.87;3.50;;;;;;;27.24;100.00;100287.24;1666086;85;21137;-61
2022/07/18 03:29:40;;;;;;;5.40;3.00;;;;;;;27.47;100.00;100287.39;1626234;87;21138;-55
2022/07/18 03:32:08;;;;;;;5.78;3.60;;;;;;;27.83;94.20;100280.30;1619344;87;21417;-55
2022/07/18 03:34:35;;;;;;;4.12;2.67;;;;;;;28.00;91.05;100285.08;1659262;86;21147;-55
2022/07/18 03:37:02;;;;;;;3.87;2.90;;;;;;;28.28;86.83;100285.83;1658947;86;21640;-55
2022/07/18 03:39:30;;;;;;;3.60;2.50;;;;;;;28.57;81.86;100283.37;1659126;84;21482;-59
2022/07/18 03:41:57;;;;;;;3.58;2.20;;;;;;;28.97;76.55;100284.84;1659319;86;21757;-55
2022/07/18 03:44:25;;;;;;;3.27;2.30;;;;;;;29.26;72.93;100280.41;1659686;86;21003;-55
2022/07/18 03:46:53;;;;;;;3.75;2.42;;;;;;;29.49;70.87;100285.19;1658917;86;21063;-62
2022/07/18 03:49:21;;;;;;;3.90;2.27;;;;;;;29.74;70.10;100287.23;1658382;84;21069;-63
2022/07/18 03:51:49;;;;;;;4.17;2.55;;;;;;;30.25;67.81;100285.80;1658118;86;21565;-57
2022/07/18 03:54:16;;;;;;;4.33;2.25;;;;;;;30.78;64.17;100290.12;1659214;84;21329;-56
2022/07/18 03:56:43;;;;;;;3.50;2.25;;;;;;;31.28;60.12;100284.73;1659163;84;21006;-57
2022/07/18 03:59:12;;;;;;;3.47;1.95;;;;;;;31.54;56.35;100287.38;1659286;86;21030;-57
2022/07/18 04:01:39;;;;;;;3.10;1.90;;;;;;;31.79;55.47;100287.61;1658400;84;21858;-57
2022/07/18 04:04:08;;;;;;;2.95;2.12;;;;;;;32.13;53.54;100286.09;1658526;86;21081;-57
2022/07/18 04:06:35;;;;;;;3.52;2.05;;;;;;;32.69;52.29;100289.89;1664106;86;21163;-57
2022/07/18 04:09:03;;;;;;;3.25;2.10;;;;;;;33.07;50.73;100293.80;1664697;86;21422;-58
2022/07/18 04:11:32;;;;;;;2.98;1.70;;;;;;;33.32;49.00;100296.53;1663614;86;21228;-59
2022/07/18 04:13:59;;;;;;;2.92;1.87;;;;;;;33.54;48.02;100288.05;1664533;86;21450;-58
2022/07/18 04:16:26;;;;;;;5.33;2.10;;;;;;;33.75;47.55;100291.19;1664774;86;21081;-57
2022/07/18 04:18:54;;;;;;;4.03;2.40;;;;;;;34.10;46.57;100289.62;1665179;86;21149;-59
2022/07/18 04:21:21;;;;;;;3.47;1.90;;;;;;;34.48;44.53;100285.70;1637771;87;21142;-58
2022/07/18 04:23:49;;;;;;;3.02;2.05;;;;;;;34.72;44.04;100284.84;1638202;87;21400;-59
2022/07/18 04:26:16;;;;;;;3.80;2.58;;;;;;;34.99;43.48;100289.23;1669032;85;21081;-58
2022/07/18 04:28:44;;;;;;;3.60;2.62;;;;;;;35.30;42.38;100292.56;1669424;85;20983;-58
2022/07/18 04:31:12;;;;;;;5.03;2.92;;;;;;;35.52;41.49;100297.98;1669284;85;22055;-62
2022/07/18 04:33:41;;;;;;;3.33;2.08;;;;;;;35.62;40.66;100296.11;1669085;85;21001;-61
2022/07/18 04:36:12;;;;;;;4.43;2.60;;;;;;;35.61;40.39;100297.80;1669340;85;21447;-61
2022/07/18 04:38:39;;;;;;;3.40;2.47;;;;;;;35.87;40.51;100295.31;1668943;85;20969;-59
2022/07/18 04:41:07;;;;;;;3.17;2.10;;;;;;;36.12;39.31;100292.41;1668592;85;20939;-60
2022/07/18 04:43:34;;;;;;;3.00;2.10;;;;;;;36.16;38.78;100298.13;1669230;84;21121;-60
2022/07/18 04:46:03;;;;;;;3.85;2.33;;;;;;;36.24;38.80;100297.13;1668622;85;20974;-59
2022/07/18 04:48:31;;;;;;;3.30;2.42;;;;;;;36.34;38.67;100298.51;1670371;85;21015;-58
2022/07/18 04:50:58;;;;;;;4.22;2.35;;;;;;;36.30;37.39;100299.79;1668643;85;21129;-64
2022/07/18 04:53:26;;;;;;;4.05;2.85;;;;;;;36.22;37.69;100292.64;1669585;85;21274;-60
2022/07/18 04:55:53;;;;;;;6.05;3.10;;;;;;;36.44;38.15;100294.42;1668775;84;21256;-58
2022/07/18 04:58:21;;;;;;;3.47;2.00;;;;;;;36.68;37.90;100294.75;1669616;85;21851;-59
2022/07/18 05:00:48;;;;;;;4.15;2.65;;;;;;;36.73;36.60;100289.80;1669144;85;21107;-58
2022/07/18 05:03:17;;;;;;;3.87;2.95;;;;;;;36.86;36.83;100287.73;1669366;85;21088;-61
2022/07/18 05:05:44;;;;;;;3.27;2.37;;;;;;;37.11;36.26;100288.19;1678646;83;21059;-61
2022/07/18 05:08:13;;;;;;;3.10;2.70;;;;;;;37.28;35.16;100295.09;1689811;83;22087;-59
2022/07/18 05:10:40;;;;;;;3.92;2.25;;;;;;;37.28;34.39;100303.80;1690376;83;21576;-65
2022/07/18 05:13:08;;;;;;;4.60;2.17;;;;;;;37.10;34.52;100302.15;1678945;83;21042;-59
2022/07/18 05:15:35;;;;;;;3.05;2.40;;;;;;;37.08;34.80;100299.00;1690079;83;21839;-60
2022/07/18 05:18:03;;;;;;;4.17;2.45;;;;;;;37.09;34.25;100305.45;1658759;84;21018;-58
2022/07/18 05:20:30;;;;;;;5.22;2.47;;;;;;;36.90;34.19;100301.34;1665750;84;21423;-59
2022/07/18 05:22:57;;;;;;;5.50;2.70;;;;;;;36.69;34.25;100309.89;1629188;86;21663;-58
2022/07/18 05:25:25;;;;;;;3.33;2.60;;;;;;;36.57;34.74;100306.76;1665869;84;21330;-59
2022/07/18 05:27:54;;;;;;;3.97;2.80;;;;;;;36.56;34.99;100307.09;1630230;86;21041;-59
2022/07/18 05:30:27;;;;;;;2.83;2.58;;;;;;;36.57;35.07;100305.41;1666107;85;21627;-59
2022/07/18 05:32:52;;;;;;;3.40;2.67;;;;;;;36.79;34.63;100302.53;1628988;86;21272;-64
2022/07/18 05:35:19;;;;;;;3.33;2.22;;;;;;;36.89;35.07;100306.58;1666526;86;21522;-57
2022/07/18 05:37:46;;;;;;;3.47;2.65;;;;;;;37.05;33.75;100301.07;1630787;86;21122;-57
2022/07/18 05:40:15;;;;;;;6.62;2.70;;;;;;;36.99;33.96;100300.59;1665414;86;21057;-58
2022/07/18 05:42:42;;;;;;;3.52;2.00;;;;;;;37.06;34.03;100299.95;1631598;86;20972;-64
2022/07/18 05:45:11;;;;;;;2.60;1.75;;;;;;;36.99;34.20;100302.73;1635214;86;21122;-60
2022/07/18 05:47:38;;;;;;;3.10;2.10;;;;;;;37.04;33.92;100299.51;1690282;83;20994;-58
2022/07/18 05:50:07;;;;;;;3.60;2.70;;;;;;;37.11;33.24;100296.92;1689841;83;21073;-60
2022/07/18 05:52:34;;;;;;;3.45;2.10;;;;;;;37.19;33.02;100291.81;1658470;86;21363;-65
2022/07/18 05:55:01;;;;;;;2.80;1.87;;;;;;;37.31;32.84;100290.84;1666715;86;20966;-59
2022/07/18 05:57:29;;;;;;;2.70;2.15;;;;;;;37.38;31.77;100292.33;1682123;83;21560;-57
2022/07/18 05:59:56;;;;;;;2.37;1.67;;;;;;;37.18;32.08;100284.23;1691237;83;21265;-58
2022/07/18 06:02:24;;;;;;;2.67;1.80;;;;;;;37.14;32.24;100282.61;1688659;83;21303;-65
2022/07/18 06:04:51;;;;;;;2.12;1.87;;;;;;;37.12;31.77;100282.17;1657795;86;21943;-59
2022/07/18 06:07:18;;;;;;;2.62;1.85;;;;;;;36.98;31.61;100284.09;1659950;85;21848;-58
2022/07/18 06:09:45;;;;;;;2.47;1.90;;;;;;;36.95;31.49;100280.73;1638110;85;21182;-58
2022/07/18 06:12:15;;;;;;;2.47;1.67;;;;;;;37.14;31.89;100289.41;1696989;83;21082;-64
2022/07/18 06:14:43;;;;;;;2.35;1.80;;;;;;;37.36;30.87;100289.98;1667410;84;21494;-62
2022/07/18 06:17:11;;;;;;;2.37;1.98;;;;;;;37.44;30.64;100291.69;1697594;84;21451;-57
2022/07/18 06:19:39;;;;;;;2.42;1.67;;;;;;;37.42;30.41;100295.33;1667033;86;21220;-57
2022/07/18 06:22:06;;;;;;;2.20;2.00;;;;;;;37.35;29.95;100292.47;1666749;85;21131;-61
2022/07/18 06:24:34;;;;;;;2.92;2.40;;;;;;;37.13;29.97;100290.56;1666689;85;21591;-64
2022/07/18 06:27:01;;;;;;;2.75;2.12;;;;;;;36.68;30.09;100289.32;1666129;85;22088;-57
2022/07/18 06:29:28;;;;;;;2.90;2.10;;;;;;;36.10;30.97;100291.97;1666738;86;20980;-57
2022/07/18 06:31:55;;;;;;;2.95;2.20;;;;;;;35.82;31.42;100296.95;1698417;82;21571;-56
2022/07/18 06:34:23;;;;;;;4.42;2.30;;;;;;;35.58;31.49;100296.02;1697796;84;21814;-61
2022/07/18 06:36:50;;;;;;;3.22;1.98;;;;;;;35.33;31.95;100295.94;1697298;83;21045;-59
2022/07/18 06:39:18;;;;;;;5.30;2.50;;;;;;;35.36;32.14;100301.24;1698346;83;21248;-57
2022/07/18 06:41:45;;;;;;;4.15;2.60;;;;;;;35.48;32.86;100301.15;1698292;82;21035;-57
2022/07/18 06:44:15;;;;;;;3.87;2.30;;;;;;;35.64;31.81;100295.17;1698059;82;20987;-63
2022/07/18 06:46:42;;;;;;;2.90;1.92;;;;;;;35.36;31.79;100306.09;1698385;84;22126;-59
2022/07/18 06:49:09;;;;;;;3.17;1.82;;;;;;;35.20;31.70;100305.30;1697539;82;21116;-59
2022/07/18 06:51:37;;;;;;;3.27;1.60;;;;;;;35.19;31.73;100299.64;1698292;82;21092;-57
2022/07/18 06:54:05;;;;;;;2.25;1.80;;;;;;;35.22;31.44;100304.36;1666647;85;21030;-58
2022/07/18 06:56:32;;;;;;;2.98;1.60;;;;;;;35.32;31.72;100303.28;1666431;86;21410;-57
2022/07/18 06:58:59;;;;;;;5.08;1.70;;;;;;;35.66;31.71;100311.11;1637704;85;21542;-57
2022/07/18 07:01:27;;;;;;;2.58;1.42;;;;;;;35.97;30.32;100298.06;1698328;83;21533;-57
2022/07/18 07:03:54;;;;;;;3.40;1.62;;;;;;;36.18;29.13;100302.64;1698402;82;21043;-57
2022/07/18 07:06:23;;;;;;;3.62;1.30;;;;;;;36.12;28.97;100299.19;1694867;83;22481;-58
2022/07/18 07:08:50;;;;;;;2.30;1.42;;;;;;;35.86;28.04;100299.17;1689667;83;21976;-57
2022/07/18 07:11:17;;;;;;;2.40;1.65;;;;;;;35.26;28.93;100309.31;1690946;83;21453;-57
2022/07/18 07:13:45;;;;;;;3.67;1.50;;;;;;;34.84;29.82;100299.67;1690498;83;21561;-58
2022/07/18 07:16:12;;;;;;;1.80;1.30;;;;;;;34.87;29.85;100304.98;1690823;84;21043;-62
2022/07/18 07:18:40;;;;;;;2.05;1.17;;;;;;;34.56;30.18;100301.05;1689973;83;20960;-63
2022/07/18 07:21:08;;;;;;;3.33;1.30;;;;;;;34.00;30.06;100308.23;1690214;83;21188;-58
2022/07/18 07:23:35;;;;;;;2.47;1.45;;;;;;;33.51;30.91;100310.33;1690260;83;21301;-57
2022/07/18 07:26:02;;;;;;;2.70;1.25;;;;;;;33.46;31.38;100313.27;1690369;83;21098;-56
2022/07/18 07:28:30;;;;;;;3.72;1.20;;;;;;;33.62;30.47;100306.62;1690363;83;21534;-57
2022/07/18 07:30:57;;;;;;;5.50;1.30;;;;;;;33.86;30.45;100309.89;1690563;83;21139;-56
2022/07/18 07:33:24;;;;;;;1.62;1.07;;;;;;;34.07;30.62;100313.30;1690779;83;21101;-58
2022/07/18 07:35:51;;;;;;;2.92;1.50;;;;;;;34.38;30.06;100311.89;1690793;83;21848;-57
2022/07/18 07:38:19;;;;;;;3.27;1.70;;;;;;;34.51;29.67;100304.54;1659233;86;21480;-57
2022/07/18 07:40:48;;;;;;;4.53;1.80;;;;;;;34.34;29.22;100306.94;1666236;86;21031;-59
2022/07/18 07:43:16;;;;;;;2.62;1.45;;;;;;;33.90;30.31;100305.37;1631307;86;21111;-56
2022/07/18 07:45:49;;;;;;;2.10;1.50;;;;;;;33.91;30.53;100312.39;1667623;84;20946;-55
2022/07/18 07:48:16;;;;;;;2.55;1.60;;;;;;;33.90;29.85;100310.22;1631434;87;21276;-62
2022/07/18 07:50:43;;;;;;;1.77;1.30;;;;;;;33.77;30.40;100310.02;1646949;86;21567;-58
2022/07/18 07:53:10;;;;;;;1.72;1.10;;;;;;;33.96;30.54;100309.45;1660084;86;21021;-58
2022/07/18 07:55:38;;;;;;;1.55;1.12;;;;;;;34.25;29.94;100311.70;1660344;84;21066;-56
2022/07/18 07:58:05;;;;;;;2.20;1.40;;;;;;;33.87;29.16;100307.44;1659985;86;21145;-56
2022/07/18 08:00:32;;;;;;;2.52;0.98;;;;;;;33.07;30.50;100317.28;1659355;86;21267;-61
2022/07/18 08:03:03;;;;;;;1.92;1.10;;;;;;;32.26;30.82;100327.97;1659538;86;21994;-56
2022/07/18 08:05:33;;;;;;;1.95;1.10;;;;;;;31.54;31.26;100321.63;1660103;86;21034;-56
2022/07/18 08:08:00;;;;;;;2.83;1.20;;;;;;;31.29;31.40;100328.05;1667768;85;20989;-56
2022/07/18 08:10:29;;;;;;;2.12;1.17;;;;;;;31.49;31.60;100325.28;1666844;86;21043;-60
2022/07/18 08:12:57;;;;;;;2.85;1.70;;;;;;;31.91;30.90;100320.08;1667610;84;22600;-56
2022/07/18 08:15:25;;;;;;;2.83;1.95;;;;;;;32.27;30.62;100307.40;1667318;86;21073;-60
2022/07/18 08:17:52;;;;;;;3.40;1.67;;;;;;;32.59;30.58;100308.64;1667228;86;20907;-55
2022/07/18 08:20:20;;;;;;;1.80;1.50;;;;;;;32.74;30.75;100305.11;1667519;84;21073;-57
2022/07/18 08:22:58;;;;;;;2.77;1.47;;;;;;;32.98;30.02;100306.58;1666528;84;21084;-56
2022/07/18 08:25:25;;;;;;;2.62;1.85;;;;;;;33.30;30.30;100308.23;1667251;86;21143;-58
2022/07/18 08:27:54;;;;;;;3.25;1.92;;;;;;;33.52;30.05;100317.88;1667303;85;21033;-62
2022/07/18 08:30:21;;;;;;;3.72;2.27;;;;;;;33.23;29.70;100307.45;1665878;84;21037;-60
2022/07/18 08:32:48;;;;;;;3.15;2.00;;;;;;;32.78;30.32;100310.08;1666866;85;21928;-57
2022/07/18 08:35:17;;;;;;;3.08;2.37;;;;;;;32.44;30.92;100320.03;1667315;84;21642;-59
2022/07/18 08:37:46;;;;;;;3.72;2.30;;;;;;;32.39;30.55;100317.47;1666896;84;21274;-57
2022/07/18 08:40:16;;;;;;;2.77;2.30;;;;;;;32.02;30.05;100317.24;1666494;84;21069;-68
2022/07/18 08:42:43;;;;;;;2.83;1.87;;;;;;;31.47;30.83;100315.37;1665390;84;21093;-60
2022/07/18 08:45:11;;;;;;;2.65;1.90;;;;;;;31.33;31.50;100319.63;1666733;85;21129;-59
2022/07/18 08:47:39;;;;;;;3.15;1.92;;;;;;;31.44;31.81;100327.60;1667102;85;21011;-57
2022/07/18 08:50:08;;;;;;;2.67;1.62;;;;;;;31.67;30.85;100330.86;1666223;84;21564;-56
2022/07/18 08:52:36;;;;;;;1.92;1.60;;;;;;;31.77;30.20;100327.55;1666029;84;21626;-59
2022/07/18 08:55:06;;;;;;;2.35;1.80;;;;;;;32.02;30.55;100332.08;1666818;84;21889;-57
2022/07/18 08:57:34;;;;;;;1.90;1.40;;;;;;;32.37;29.71;100321.08;1666866;85;21072;-56
2022/07/18 09:00:09;;;;;;;2.15;1.70;;;;;;;32.52;29.89;100327.27;1666543;85;20999;-62
2022/07/18 09:02:37;;;;;;;2.22;1.47;;;;;;;32.67;28.95;100332.06;1666296;86;22154;-57
2022/07/18 09:05:08;;;;;;;2.67;1.60;;;;;;;32.48;28.44;100333.66;1666958;85;21037;-56
2022/07/18 09:07:35;;;;;;;2.23;1.30;;;;;;;32.34;29.67;100332.52;1684934;83;21087;-56
2022/07/18 09:10:05;;;;;;;3.67;1.47;;;;;;;32.46;28.59;100338.80;1671664;85;21087;-65
2022/07/18 09:12:32;;;;;;;3.75;1.95;;;;;;;32.63;28.62;100333.84;1703321;83;21443;-56
2022/07/18 09:15:06;;;;;;;2.27;1.47;;;;;;;32.78;28.34;100331.11;1703840;83;21418;-58
2022/07/18 09:17:34;;;;;;;1.70;1.60;;;;;;;32.62;27.96;100321.48;1703207;84;21019;-57
2022/07/18 09:20:17;;;;;;;3.35;1.70;;;;;;;32.15;28.79;100341.03;1671257;84;21060;-57
2022/07/18 09:22:44;;;;;;;3.77;1.30;;;;;;;31.67;29.71;100335.43;1706570;83;21054;-57
2022/07/18 09:25:20;;;;;;;1.70;1.42;;;;;;;31.32;30.43;100340.13;1692620;83;21058;-56
2022/07/18 09:27:54;;;;;;;2.83;1.70;;;;;;;30.84;30.53;100345.13;1703099;83;21268;-56
2022/07/18 09:30:32;;;;;;;2.60;1.47;;;;;;;30.24;30.66;100345.28;1703136;83;21101;-56
2022/07/18 09:33:07;;;;;;;4.12;2.12;;;;;;;29.94;30.58;100340.97;1703757;83;20919;-58
2022/07/18 09:35:44;;;;;;;2.40;1.80;;;;;;;30.04;31.18;100341.22;1703320;83;21010;-55
2022/07/18 09:38:23;;;;;;;2.17;1.80;;;;;;;30.42;31.58;100329.95;1690682;83;21082;-55
2022/07/18 09:40:54;;;;;;;2.90;1.75;;;;;;;30.42;31.58;100329.95;1703764;83;21263;-56
2022/07/18 09:43:22;;;;;;;3.47;2.17;;;;;;;30.51;30.88;100336.94;1675765;84;21074;-58
2022/07/18 09:45:55;;;;;;;2.77;2.00;;;;;;;30.38;30.24;100333.03;1703496;83;21022;-59
2022/07/18 09:48:26;;;;;;;2.60;1.90;;;;;;;30.45;30.92;100332.02;1703677;84;21145;-56
2022/07/18 09:50:59;;;;;;;3.33;2.50;;;;;;;30.73;31.03;100333.33;1702976;83;21016;-64
2022/07/18 09:53:30;;;;;;;3.25;2.60;;;;;;;30.83;29.83;100338.96;1704564;83;21404;-63
2022/07/18 09:56:00;;;;;;;3.22;2.62;;;;;;;30.58;29.48;100335.14;1703612;83;21121;-57
2022/07/18 09:58:32;;;;;;;3.27;2.45;;;;;;;30.51;29.45;100336.16;1703960;83;20986;-58
2022/07/18 10:01:01;;;;;;;3.42;2.47;;;;;;;30.75;28.84;100329.78;1702533;83;20991;-56
2022/07/18 10:03:28;;;;;;;3.40;2.22;;;;;;;30.97;28.75;100335.56;1709142;83;21010;-64
2022/07/18 10:05:57;;;;;;;4.37;2.42;;;;;;;30.88;28.40;100338.03;1671292;85;21196;-55
2022/07/18 10:08:27;;;;;;;3.42;2.10;;;;;;;30.57;29.61;100334.09;1691528;83;21011;-55
2022/07/18 10:10:55;;;;;;;2.98;2.08;;;;;;;30.27;30.00;100332.00;1688793;83;20979;-56
2022/07/18 10:13:23;;;;;;;2.35;1.62;;;;;;;29.79;30.67;100327.39;1688714;84;21520;-61
2022/07/18 10:15:51;;;;;;;2.35;1.65;;;;;;;29.31;30.95;100338.78;1688979;83;21528;-56
2022/07/18 10:18:21;;;;;;;3.30;1.70;;;;;;;29.09;31.74;100332.90;1689484;83;21870;-55
2022/07/18 10:21:02;;;;;;;2.37;1.52;;;;;;;29.14;31.97;100331.98;1688495;83;21129;-66
2022/07/18 10:23:44;;;;;;;3.87;2.17;;;;;;;29.42;32.17;100331.28;1688849;83;21040;-58
2022/07/18 10:26:24;;;;;;;2.25;1.67;;;;;;;29.94;31.70;100329.42;1688822;83;20912;-58
2022/07/18 10:29:06;;;;;;;3.67;1.95;;;;;;;30.40;31.08;100329.48;1688763;83;21459;-58
2022/07/18 10:31:43;;;;;;;3.15;2.00;;;;;;;30.92;30.16;100324.96;1689344;83;21271;-56
2022/07/18 10:34:12;;;;;;;2.87;2.00;;;;;;;31.41;29.58;100319.38;1685644;84;21509;-60
2022/07/18 10:36:49;;;;;;;3.15;1.92;;;;;;;31.73;28.36;100313.94;1690003;84;21519;-56
2022/07/18 10:39:20;;;;;;;3.37;1.65;;;;;;;31.78;28.43;100327.78;1689770;83;21569;-57
2022/07/18 10:41:57;;;;;;;2.10;1.50;;;;;;;31.77;29.21;100320.81;1688898;83;21024;-64
2022/07/18 10:44:34;;;;;;;2.27;1.52;;;;;;;31.74;28.39;100321.69;1689960;83;21304;-56
2022/07/18 10:47:12;;;;;;;2.52;1.72;;;;;;;31.66;29.11;100314.42;1689405;83;21020;-57
2022/07/18 10:49:52;;;;;;;2.47;1.50;;;;;;;31.60;29.51;100318.44;1688603;83;20992;-59
2022/07/18 10:52:33;;;;;;;3.42;1.80;;;;;;;31.25;28.55;100325.77;1680481;83;20996;-58
2022/07/18 10:55:18;;;;;;;3.27;1.70;;;;;;;29.70;31.05;100331.94;1689736;83;21074;-63
2022/07/18 10:57:54;;;;;;;1.77;1.40;;;;;;;29.70;31.05;100331.94;1690011;83;21243;-56
2022/07/18 11:00:36;;;;;;;2.65;1.20;;;;;;;29.30;31.59;100341.79;1689596;83;21126;-58
2022/07/18 11:03:07;;;;;;;1.92;1.30;;;;;;;29.16;31.16;100335.13;1686465;83;21129;-57
2022/07/18 11:05:46;;;;;;;3.62;1.50;;;;;;;29.04;30.41;100332.21;1689594;83;21041;-57
2022/07/18 11:08:17;;;;;;;4.35;1.50;;;;;;;28.98;31.12;100333.42;1637090;87;20911;-65
2022/07/18 11:10:51;;;;;;;3.15;1.67;;;;;;;29.31;32.19;100328.05;1669446;85;22377;-57
2022/07/18 11:13:35;;;;;;;2.60;1.77;;;;;;;29.87;31.52;100323.15;1672698;85;21042;-56
2022/07/18 11:16:24;;;;;;;3.12;2.08;;;;;;;30.32;31.53;100322.99;1672217;85;21083;-65
2022/07/18 11:19:00;;;;;;;3.35;2.62;;;;;;;30.62;31.76;100336.09;1672953;85;21600;-57
2022/07/18 11:21:30;;;;;;;6.03;4.40;;;;;;;30.89;30.58;100332.88;1673102;85;21066;-57
2022/07/18 11:24:10;;;;;;;7.12;6.25;;;;;;;31.07;29.34;100330.97;1672201;85;25336;-57
2022/07/18 11:26:41;;;;;;;9.60;7.62;;;;;;;31.13;29.55;100337.20;1673457;85;21090;-58
2022/07/18 11:29:10;;;;;;;8.05;7.08;;;;;;;31.32;29.93;100325.31;1673233;85;21010;-57
2022/07/18 11:31:56;;;;;;;6.87;6.17;;;;;;;31.61;29.40;100329.44;1672598;85;21556;-62